createdAt,value
2018-04-23T10:12:56.158Z,55.78
2018-04-23T10:15:24.586Z,55.41
2018-04-23T10:17:52.894Z,55.02
2018-04-23T10:20:21.791Z,54.63
2018-04-23T10:22:50.187Z,54.68
2018-04-23T10:25:18.548Z,54.55
2018-04-23T10:27:46.849Z,53.94
2018-04-23T10:30:15.172Z,54.88
2018-04-23T10:32:43.962Z,54.41
2018-04-23T10:35:12.267Z,53.67
2018-04-23T10:37:42.364Z,53.61
2018-04-23T10:40:10.715Z,53.16
2018-04-23T10:42:39.023Z,54.04
2018-04-23T10:45:07.326Z,53.68
2018-04-23T10:47:35.632Z,55.61
2018-04-23T10:50:04.181Z,55.20
2018-04-23T10:52:32.456Z,54.73
2018-04-23T10:55:00.895Z,53.92
2018-04-23T10:57:30.019Z,54.01
2018-04-23T10:59:58.356Z,54.29
2018-04-23T11:02:27.559Z,54.51
2018-04-23T11:04:55.910Z,54.30
2018-04-23T11:07:24.218Z,53.79
2018-04-23T11:09:52.556Z,53.14
2018-04-23T11:12:20.871Z,52.90
2018-04-23T11:14:50.013Z,52.58
2018-04-23T11:17:18.406Z,51.80
2018-04-23T11:19:46.698Z,52.44
2018-04-23T11:22:15.019Z,52.82
2018-04-23T11:24:43.339Z,52.80
2018-04-23T11:27:11.590Z,52.81
2018-04-23T11:29:39.892Z,53.59
2018-04-23T11:32:08.253Z,53.99
2018-04-23T11:34:36.568Z,54.66
2018-04-23T11:37:05.666Z,54.71
2018-04-23T11:39:34.334Z,54.20
2018-04-23T11:42:03.630Z,54.05
2018-04-23T11:44:32.115Z,54.63
2018-04-23T11:47:00.407Z,54.35
2018-04-23T11:49:28.678Z,54.36
2018-04-23T11:51:57.124Z,55.05
2018-04-23T11:54:25.374Z,54.72
2018-04-23T11:56:53.706Z,54.74
2018-04-23T11:59:22.103Z,54.49
2018-04-23T12:01:50.344Z,53.81
2018-04-23T12:04:18.788Z,52.64
2018-04-23T12:06:47.063Z,52.49
2018-04-23T12:09:15.357Z,51.50
2018-04-23T12:11:43.639Z,51.29
2018-04-23T12:14:11.970Z,50.61
2018-04-23T12:16:40.249Z,50.36
2018-04-23T12:19:08.555Z,50.13
2018-04-23T12:21:36.870Z,50.09
2018-04-23T12:24:05.136Z,49.41
2018-04-23T12:26:33.486Z,49.73
2018-04-23T12:29:01.777Z,49.87
2018-04-23T12:31:30.998Z,50.37
2018-04-23T12:33:59.267Z,51.30
2018-04-23T12:36:27.579Z,51.63
2018-04-23T12:38:56.984Z,52.02
2018-04-23T12:41:25.258Z,52.51
2018-04-23T12:43:53.599Z,53.04
2018-04-23T12:46:21.848Z,52.48
2018-04-23T12:48:50.171Z,53.54
2018-04-23T12:51:18.494Z,53.77
2018-04-23T12:53:46.790Z,53.89
2018-04-23T12:56:15.072Z,53.29
2018-04-23T12:58:43.346Z,52.16
2018-04-23T13:01:11.733Z,51.02
2018-04-23T13:03:40.013Z,50.92
2018-04-23T13:06:08.390Z,51.04
2018-04-23T13:08:36.661Z,50.74
2018-04-23T13:11:05.574Z,50.68
2018-04-23T13:13:34.377Z,50.12
2018-04-23T13:16:02.718Z,49.65
2018-04-23T13:18:30.979Z,50.08
2018-04-23T13:20:59.297Z,49.19
2018-04-23T13:23:27.564Z,48.61
2018-04-23T13:25:55.940Z,48.65
2018-04-23T13:28:24.340Z,49.76
2018-04-23T13:30:52.718Z,49.90
2018-04-23T13:33:21.118Z,50.05
2018-04-23T13:35:49.362Z,50.51
2018-04-23T13:38:18.621Z,50.74
2018-04-23T13:40:47.047Z,51.14
2018-04-23T13:43:15.518Z,50.78
2018-04-23T13:45:43.815Z,51.54
2018-04-23T13:48:12.136Z,51.79
2018-04-23T13:50:40.953Z,52.09
2018-04-23T13:53:09.332Z,51.34
2018-04-23T13:55:37.593Z,50.81
2018-04-23T13:58:05.875Z,50.54
2018-04-23T14:00:34.202Z,49.22
2018-04-23T14:03:02.564Z,49.50
2018-04-23T14:05:30.896Z,49.44
2018-04-23T14:07:59.202Z,50.52
2018-04-23T14:10:27.507Z,51.25
2018-04-23T14:12:55.910Z,51.84
2018-04-23T14:15:24.207Z,51.71
2018-04-23T14:17:52.485Z,51.62
2018-04-23T14:20:21.428Z,51.73
2018-04-23T14:22:49.693Z,51.88
2018-04-23T14:25:18.007Z,50.84
2018-04-23T14:27:46.263Z,50.75
2018-04-23T14:30:14.554Z,50.22
2018-04-23T14:32:42.948Z,48.99
2018-04-23T14:35:11.294Z,47.82
2018-04-23T14:37:39.709Z,45.47
2018-04-23T14:40:08.075Z,44.96
2018-04-23T14:42:36.406Z,44.31
2018-04-23T14:45:05.775Z,43.23
2018-04-23T14:47:34.227Z,43.47
2018-04-23T14:50:02.513Z,43.98
2018-04-23T14:52:30.851Z,44.49
2018-04-23T14:54:59.151Z,44.15
2018-04-23T14:57:27.466Z,43.72
2018-04-23T14:59:55.735Z,43.31
2018-04-23T15:02:24.065Z,43.08
2018-04-23T15:04:52.334Z,42.85
2018-04-23T15:07:20.718Z,42.51
2018-04-23T15:09:49.139Z,42.80
2018-04-23T15:12:17.443Z,43.49
2018-04-23T15:14:45.752Z,44.11
2018-04-23T15:17:14.035Z,44.78
2018-04-23T15:19:42.446Z,48.30
2018-04-23T15:22:10.752Z,50.38
2018-04-23T15:24:39.082Z,50.08
2018-04-23T15:27:07.380Z,49.03
2018-04-23T15:29:35.664Z,48.70
2018-04-23T15:32:03.968Z,48.50
2018-04-23T15:34:32.334Z,49.30
2018-04-23T15:37:01.300Z,48.77
2018-04-23T15:39:29.625Z,48.49
2018-04-23T15:41:58.687Z,48.66
2018-04-23T15:44:27.032Z,49.26
2018-04-23T15:46:55.345Z,48.51
2018-04-23T15:49:23.617Z,48.66
2018-04-23T15:51:51.888Z,49.25
2018-04-23T15:54:20.787Z,48.93
2018-04-23T15:56:49.999Z,48.20
2018-04-23T15:59:19.461Z,48.25
2018-04-23T16:01:47.739Z,48.63
2018-04-23T16:04:16.012Z,49.63
2018-04-23T16:06:44.357Z,50.91
2018-04-23T16:09:12.622Z,51.17
2018-04-23T16:11:40.937Z,51.15
2018-04-23T16:14:09.203Z,52.03
2018-04-23T16:16:37.499Z,52.24
2018-04-23T16:19:05.859Z,52.55
2018-04-23T16:21:34.167Z,53.93
2018-04-23T16:24:02.459Z,53.90
2018-04-23T16:26:30.752Z,53.78
2018-04-23T16:28:59.040Z,55.34
2018-04-23T16:31:27.371Z,55.77
2018-04-23T16:33:56.306Z,56.07
2018-04-23T16:36:24.602Z,56.13
2018-04-23T16:38:52.878Z,55.86
2018-04-23T16:41:21.189Z,56.46
2018-04-23T16:43:49.507Z,57.75
2018-04-23T16:46:17.758Z,57.61
2018-04-23T16:48:46.345Z,57.65
2018-04-23T16:51:14.627Z,58.10
2018-04-23T16:53:43.046Z,58.50
2018-04-23T16:56:11.286Z,58.77
2018-04-23T16:58:39.592Z,59.00
2018-04-23T17:01:07.951Z,58.77
2018-04-23T17:03:37.131Z,59.41
2018-04-23T17:06:05.406Z,59.96
2018-04-23T17:08:33.754Z,59.50
2018-04-23T17:11:02.164Z,59.32
2018-04-23T17:13:30.484Z,59.88
2018-04-23T17:15:58.864Z,60.25
2018-04-23T17:18:27.848Z,60.31
2018-04-23T17:20:56.191Z,60.36
2018-04-23T17:23:24.496Z,60.57
2018-04-23T17:25:52.782Z,61.42
2018-04-23T17:28:21.131Z,61.12
2018-04-23T17:30:49.409Z,61.09
2018-04-23T17:33:17.696Z,60.96
2018-04-23T17:35:46.004Z,61.37
2018-04-23T17:38:14.335Z,61.76
2018-04-23T17:40:42.666Z,62.14
2018-04-23T17:43:10.952Z,62.24
2018-04-23T17:45:39.255Z,61.84
2018-04-23T17:48:07.535Z,61.75
2018-04-23T17:50:35.826Z,62.13
2018-04-23T17:53:04.130Z,62.25
2018-04-23T17:55:32.447Z,62.15
2018-04-23T17:58:00.729Z,61.86
2018-04-23T18:00:29.060Z,62.14
2018-04-23T18:02:57.336Z,61.91
2018-04-23T18:05:25.691Z,60.91
2018-04-23T18:07:54.506Z,60.44
2018-04-23T18:10:22.796Z,61.13
2018-04-23T18:12:51.070Z,61.40
2018-04-23T18:15:19.390Z,61.19
2018-04-23T18:17:47.747Z,61.25
2018-04-23T18:20:16.039Z,60.78
2018-04-23T18:22:45.135Z,58.82
2018-04-23T18:25:13.772Z,57.04
2018-04-23T18:27:42.299Z,55.62
2018-04-23T18:30:10.724Z,53.75
2018-04-23T18:32:39.299Z,53.13
2018-04-23T18:35:07.594Z,52.43
2018-04-23T18:37:35.906Z,52.28
2018-04-23T18:40:05.988Z,52.08
2018-04-23T18:42:34.314Z,51.76
2018-04-23T18:45:02.663Z,50.99
2018-04-23T18:47:31.005Z,51.12
2018-04-23T18:49:59.816Z,51.10
2018-04-23T18:52:28.176Z,50.81
2018-04-23T18:54:56.466Z,50.52
2018-04-23T18:57:24.747Z,50.63
2018-04-23T18:59:53.256Z,50.64
2018-04-23T19:02:21.601Z,50.23
2018-04-23T19:04:49.852Z,50.93
2018-04-23T19:07:18.177Z,51.25
2018-04-23T19:09:46.444Z,51.23
2018-04-23T19:12:14.772Z,51.30
2018-04-23T19:14:43.095Z,51.27
2018-04-23T19:17:11.366Z,51.52
2018-04-23T19:19:39.714Z,51.82
2018-04-23T19:22:07.994Z,51.91
2018-04-23T19:24:37.359Z,51.91
2018-04-23T19:27:05.697Z,51.99
2018-04-23T19:29:34.009Z,52.15
2018-04-23T19:32:02.315Z,52.31
2018-04-23T19:34:30.623Z,52.47
2018-04-23T19:36:58.897Z,52.67
2018-04-23T19:39:27.276Z,52.89
2018-04-23T19:41:55.595Z,52.77
2018-04-23T19:44:23.865Z,52.72
2018-04-23T19:46:52.156Z,52.72
2018-04-23T19:49:20.468Z,52.93
2018-04-23T19:51:48.841Z,52.77
2018-04-23T19:54:17.091Z,52.91
2018-04-23T19:56:45.411Z,52.87
2018-04-23T19:59:13.679Z,53.14
2018-04-23T20:01:42.002Z,53.12
2018-04-23T20:04:10.306Z,53.07
2018-04-23T20:06:38.613Z,53.43
2018-04-23T20:09:06.913Z,53.42
2018-04-23T20:11:35.702Z,53.18
2018-04-23T20:14:04.047Z,53.29
2018-04-23T20:16:32.387Z,53.44
2018-04-23T20:19:00.703Z,53.76
2018-04-23T20:21:30.260Z,53.64
2018-04-23T20:23:58.558Z,53.47
2018-04-23T20:26:26.843Z,53.55
2018-04-23T20:28:55.124Z,53.54
2018-04-23T20:31:24.159Z,53.77
2018-04-23T20:33:52.548Z,54.05
2018-04-23T20:36:20.814Z,54.20
2018-04-23T20:38:49.142Z,54.06
2018-04-23T20:41:17.410Z,54.17
2018-04-23T20:43:45.679Z,54.40
2018-04-23T20:46:14.013Z,54.55
2018-04-23T20:48:42.386Z,54.88
2018-04-23T20:51:10.694Z,54.93
2018-04-23T20:53:38.975Z,55.16
2018-04-23T20:56:07.272Z,55.27
2018-04-23T20:58:35.541Z,55.18
2018-04-23T21:01:03.984Z,55.03
2018-04-23T21:03:32.502Z,54.58
2018-04-23T21:06:01.158Z,54.38
2018-04-23T21:08:29.433Z,59.48
2018-04-23T21:10:57.919Z,55.78
2018-04-23T21:13:26.162Z,54.35
2018-04-23T21:15:54.457Z,53.84
2018-04-23T21:18:22.804Z,52.26
2018-04-23T21:20:51.079Z,51.56
2018-04-23T21:23:19.384Z,52.33
2018-04-23T21:25:48.347Z,52.88
2018-04-23T21:28:16.719Z,53.42
2018-04-23T21:30:45.005Z,53.63
2018-04-23T21:33:14.866Z,53.68
2018-04-23T21:35:43.158Z,53.89
2018-04-23T21:38:11.418Z,54.02
2018-04-23T21:40:39.676Z,54.04
2018-04-23T21:43:07.996Z,53.83
2018-04-23T21:45:36.422Z,53.87
2018-04-23T21:48:04.858Z,53.73
2018-04-23T21:50:33.135Z,54.25
2018-04-23T21:53:01.422Z,53.87
2018-04-23T21:55:29.683Z,54.04
2018-04-23T21:57:58.013Z,54.48
2018-04-23T22:00:26.366Z,54.61
2018-04-23T22:02:54.658Z,54.63
2018-04-23T22:05:23.120Z,54.46
2018-04-23T22:07:51.412Z,54.21
2018-04-23T22:10:19.705Z,56.34
2018-04-23T22:12:47.966Z,57.38
2018-04-23T22:15:16.282Z,56.65
2018-04-23T22:17:44.562Z,55.10
2018-04-23T22:20:12.878Z,54.74
2018-04-23T22:22:41.160Z,56.86
2018-04-23T22:25:09.464Z,57.55
2018-04-23T22:27:37.724Z,57.64
2018-04-23T22:30:06.015Z,57.64
2018-04-23T22:32:34.324Z,57.67
2018-04-23T22:35:02.639Z,58.60
2018-04-23T22:37:30.935Z,58.79
2018-04-23T22:39:59.207Z,60.53
2018-04-23T22:42:27.548Z,60.99
2018-04-23T22:44:55.848Z,61.13
2018-04-23T22:47:24.139Z,61.61
2018-04-23T22:49:52.415Z,61.71
2018-04-23T22:52:20.730Z,61.70
2018-04-23T22:54:49.012Z,61.67
2018-04-23T22:57:17.336Z,61.45
2018-04-23T22:59:45.574Z,61.25
2018-04-23T23:02:13.898Z,61.39
2018-04-23T23:04:42.183Z,61.33
2018-04-23T23:07:10.470Z,61.23
2018-04-23T23:09:38.727Z,61.69
2018-04-23T23:12:07.039Z,62.13
2018-04-23T23:14:35.288Z,62.03
2018-04-23T23:17:03.591Z,62.14
2018-04-23T23:19:31.839Z,62.10
2018-04-23T23:22:00.122Z,61.90
2018-04-23T23:24:28.448Z,62.13
2018-04-23T23:26:56.732Z,62.51
2018-04-23T23:29:25.040Z,62.70
2018-04-23T23:31:53.355Z,62.77
2018-04-23T23:34:21.637Z,62.67
2018-04-23T23:36:49.898Z,62.81
2018-04-23T23:39:18.208Z,62.96
2018-04-23T23:41:46.528Z,62.85
2018-04-23T23:44:14.828Z,62.85
2018-04-23T23:46:43.282Z,62.67
2018-04-23T23:49:11.569Z,62.95
2018-04-23T23:51:39.830Z,63.05
2018-04-23T23:54:08.159Z,63.51
2018-04-23T23:56:36.410Z,64.35
2018-04-23T23:59:05.086Z,64.14
